createdAt,value
2023-03-10T01:12:54.914Z,22.40
2023-03-10T01:13:54.912Z,22.37
2023-03-10T01:14:54.904Z,22.41
2023-03-10T01:15:54.952Z,22.41
2023-03-10T01:16:54.928Z,22.31
2023-03-10T01:17:54.855Z,22.38
2023-03-10T01:18:54.850Z,22.37
2023-03-10T01:19:54.864Z,22.44
2023-03-10T01:20:54.828Z,22.43
2023-03-10T01:21:54.824Z,22.44
2023-03-10T01:22:54.815Z,22.37
2023-03-10T01:23:54.810Z,22.44
2023-03-10T01:24:54.810Z,22.38
2023-03-10T01:25:54.795Z,22.34
2023-03-10T01:26:54.783Z,22.44
2023-03-10T01:27:54.766Z,22.37
2023-03-10T01:28:54.756Z,22.32
2023-03-10T01:29:54.756Z,22.44
2023-03-10T01:30:54.875Z,22.50
2023-03-10T01:31:54.759Z,22.43
2023-03-10T01:32:54.872Z,22.43
2023-03-10T01:33:54.744Z,22.41
2023-03-10T01:34:54.706Z,22.43
2023-03-10T01:35:54.762Z,22.44
2023-03-10T01:36:54.696Z,22.45
2023-03-10T01:37:54.684Z,22.47
2023-03-10T01:38:54.669Z,22.44
2023-03-10T01:39:54.654Z,22.40
2023-03-10T01:40:54.821Z,22.42
2023-03-10T01:41:54.634Z,22.53
2023-03-10T01:42:54.638Z,22.47
2023-03-10T01:43:54.609Z,22.49
2023-03-10T01:44:54.608Z,22.47
2023-03-10T01:45:54.641Z,22.41
2023-03-10T01:46:54.701Z,22.45
2023-03-10T01:47:54.577Z,22.47
2023-03-10T01:48:54.559Z,22.41
2023-03-10T01:49:54.563Z,22.42
2023-03-10T01:50:54.531Z,22.51
2023-03-10T01:51:54.532Z,22.41
2023-03-10T01:52:54.531Z,22.49
2023-03-10T01:53:54.504Z,22.45
2023-03-10T01:54:54.496Z,22.49
2023-03-10T01:55:54.477Z,22.49
2023-03-10T01:56:54.457Z,22.53
2023-03-10T01:57:54.460Z,22.49
2023-03-10T01:58:54.432Z,22.45
2023-03-10T01:59:54.443Z,22.50
2023-03-10T02:00:54.495Z,22.45
2023-03-10T02:01:54.431Z,22.53
2023-03-10T02:02:54.401Z,22.44
2023-03-10T02:03:54.387Z,22.53
2023-03-10T02:04:54.374Z,22.44
2023-03-10T02:05:54.384Z,22.53
2023-03-10T02:06:54.336Z,22.53
2023-03-10T02:07:54.318Z,22.47
2023-03-10T02:08:54.308Z,22.45
2023-03-10T02:09:54.319Z,22.56
2023-03-10T02:10:54.291Z,22.48
2023-03-10T02:11:54.282Z,22.47
2023-03-10T02:12:54.270Z,22.54
2023-03-10T02:13:54.250Z,22.56
2023-03-10T02:14:54.228Z,22.53
2023-03-10T02:15:54.260Z,22.51
2023-03-10T02:16:54.213Z,22.53
2023-03-10T02:17:54.235Z,22.51
2023-03-10T02:18:54.196Z,22.53
2023-03-10T02:19:54.202Z,22.51
2023-03-10T02:20:54.171Z,22.48
2023-03-10T02:21:54.160Z,22.54
2023-03-10T02:22:54.151Z,22.51
2023-03-10T02:24:01.096Z,22.53
2023-03-10T02:24:55.123Z,22.54
2023-03-10T02:25:54.113Z,22.48
2023-03-10T02:26:54.116Z,22.53
2023-03-10T02:27:54.090Z,22.57
2023-03-10T02:28:54.140Z,22.51
2023-03-10T02:29:59.309Z,22.53
2023-03-10T02:30:55.083Z,22.56
2023-03-10T02:31:54.147Z,22.50
2023-03-10T02:32:54.126Z,22.45
2023-03-10T02:33:54.071Z,22.53
2023-03-10T02:34:54.033Z,22.54
2023-03-10T02:35:54.053Z,22.60
2023-03-10T02:36:53.995Z,22.56
2023-03-10T02:37:53.991Z,22.56
2023-03-10T02:38:53.995Z,22.56
2023-03-10T02:39:53.961Z,22.60
2023-03-10T02:40:53.942Z,22.56
2023-03-10T02:41:53.967Z,22.59
2023-03-10T02:42:53.928Z,22.68
2023-03-10T02:43:53.908Z,22.57
2023-03-10T02:44:53.909Z,22.59
2023-03-10T02:45:53.908Z,22.57
2023-03-10T02:46:53.883Z,22.62
2023-03-10T02:47:53.872Z,22.59
2023-03-10T02:48:53.885Z,22.54
2023-03-10T02:49:53.842Z,22.59
2023-03-10T02:50:53.848Z,22.57
2023-03-10T02:51:53.825Z,22.54
2023-03-10T02:52:53.860Z,22.57
2023-03-10T02:53:53.809Z,22.53
2023-03-10T02:54:53.777Z,22.57
2023-03-10T02:55:53.790Z,22.56
2023-03-10T02:56:53.779Z,22.62
2023-03-10T02:57:53.743Z,22.53
2023-03-10T02:58:53.750Z,22.60
2023-03-10T02:59:53.716Z,22.56
2023-03-10T03:00:53.753Z,22.57
2023-03-10T03:01:53.692Z,22.65
2023-03-10T03:02:53.680Z,22.66
2023-03-10T03:03:53.704Z,22.63
2023-03-10T03:04:53.677Z,22.54
2023-03-10T03:05:53.648Z,22.53
2023-03-10T03:06:53.655Z,22.60
2023-03-10T03:07:53.625Z,22.62
2023-03-10T03:08:53.603Z,22.63
2023-03-10T03:09:53.599Z,22.62
2023-03-10T03:10:53.606Z,22.54
2023-03-10T03:11:53.589Z,22.54
2023-03-10T03:12:53.578Z,22.59
2023-03-10T03:13:53.570Z,22.59
2023-03-10T03:14:53.578Z,22.65
2023-03-10T03:15:53.546Z,22.62
2023-03-10T03:16:53.585Z,22.65
2023-03-10T03:17:53.565Z,22.60
2023-03-10T03:18:53.573Z,22.60
2023-03-10T03:19:53.516Z,22.63
2023-03-10T03:20:53.520Z,22.66
2023-03-10T03:21:53.517Z,22.65
2023-03-10T03:22:53.520Z,22.60
2023-03-10T03:23:53.486Z,22.62
2023-03-10T03:24:53.488Z,22.65
2023-03-10T03:25:53.479Z,22.63
2023-03-10T03:26:53.490Z,22.66
2023-03-10T03:27:53.534Z,22.59
2023-03-10T03:28:53.483Z,22.60
2023-03-10T03:29:53.460Z,22.60
2023-03-10T03:30:53.437Z,22.54
2023-03-10T03:31:53.503Z,22.62
2023-03-10T03:32:53.502Z,22.54
2023-03-10T03:33:53.429Z,22.65
2023-03-10T03:34:53.460Z,22.63
2023-03-10T03:35:53.497Z,22.65
2023-03-10T03:36:53.419Z,22.63
2023-03-10T03:37:53.409Z,22.71
2023-03-10T03:38:53.434Z,22.67
2023-03-10T03:39:53.448Z,22.67
2023-03-10T03:40:53.377Z,22.67
2023-03-10T03:41:53.477Z,22.65
2023-03-10T03:42:53.401Z,22.66
2023-03-10T03:43:53.409Z,22.67
2023-03-10T03:44:53.337Z,22.63
2023-03-10T03:45:53.380Z,22.65
2023-03-10T03:46:53.371Z,22.66
2023-03-10T03:47:53.335Z,22.66
2023-03-10T03:48:53.326Z,22.69
2023-03-10T03:49:53.306Z,22.65
2023-03-10T03:50:53.316Z,22.72
2023-03-10T03:51:53.310Z,22.57
2023-03-10T03:52:53.312Z,22.66
2023-03-10T03:53:53.274Z,22.66
2023-03-10T03:54:53.272Z,22.65
2023-03-10T03:55:53.277Z,22.66
2023-03-10T03:56:53.263Z,22.69
2023-03-10T03:57:53.253Z,22.72
2023-03-10T03:58:53.240Z,22.65
2023-03-10T03:59:53.217Z,22.66
2023-03-10T04:00:53.232Z,22.66
2023-03-10T04:01:53.191Z,22.63
2023-03-10T04:02:53.286Z,22.63
2023-03-10T04:03:53.215Z,22.71
2023-03-10T04:04:53.160Z,22.63
2023-03-10T04:05:53.209Z,22.68
2023-03-10T04:06:53.134Z,22.69
2023-03-10T04:07:53.153Z,22.60
2023-03-10T04:08:53.137Z,22.63
2023-03-10T04:09:53.136Z,22.71
2023-03-10T04:10:53.094Z,22.60
2023-03-10T04:11:53.109Z,22.69
2023-03-10T04:12:53.075Z,22.69
2023-03-10T04:13:53.108Z,22.71
2023-03-10T04:14:53.076Z,22.72
2023-03-10T04:15:53.067Z,22.71
2023-03-10T04:16:53.043Z,22.72
2023-03-10T04:17:53.028Z,22.71
2023-03-10T04:18:53.024Z,22.72
2023-03-10T04:20:06.312Z,22.65
2023-03-10T04:20:52.999Z,22.71
2023-03-10T04:21:52.980Z,22.60
2023-03-10T04:22:52.978Z,22.66
2023-03-10T04:23:52.996Z,22.71
2023-03-10T04:24:52.947Z,22.66
2023-03-10T04:25:52.932Z,22.73
2023-03-10T04:26:52.917Z,22.71
2023-03-10T04:27:52.908Z,22.72
2023-03-10T04:28:52.900Z,22.69
2023-03-10T04:29:52.888Z,22.63
2023-03-10T04:30:52.902Z,22.66
2023-03-10T04:32:04.883Z,22.65
2023-03-10T04:32:53.910Z,22.69
2023-03-10T04:33:52.849Z,22.71
2023-03-10T04:34:52.819Z,22.69
2023-03-10T04:35:52.832Z,22.69
2023-03-10T04:36:52.806Z,22.66
2023-03-10T04:37:52.777Z,22.67
2023-03-10T04:38:52.769Z,22.67
2023-03-10T04:39:52.746Z,22.66
2023-03-10T04:40:52.744Z,22.69
2023-03-10T04:41:52.754Z,22.69
2023-03-10T04:42:52.750Z,22.66
2023-03-10T04:43:52.721Z,22.66
2023-03-10T04:44:52.752Z,22.72
2023-03-10T04:45:52.774Z,22.71
2023-03-10T04:46:52.764Z,22.71
2023-03-10T04:47:52.692Z,22.66
2023-03-10T04:48:52.712Z,22.60
2023-03-10T04:49:52.693Z,22.52
2023-03-10T04:50:52.693Z,22.69
2023-03-10T04:51:52.702Z,22.65
2023-03-10T04:52:52.691Z,22.71
2023-03-10T04:53:52.722Z,22.64
2023-03-10T04:54:52.662Z,22.66
2023-03-10T04:55:52.667Z,22.64
2023-03-10T04:56:52.669Z,22.70
2023-03-10T04:57:52.661Z,22.69
2023-03-10T04:58:52.670Z,22.73
2023-03-10T04:59:52.712Z,22.70
2023-03-10T05:01:02.856Z,22.73
2023-03-10T05:01:53.861Z,22.66
2023-03-10T05:02:52.640Z,22.66
2023-03-10T05:03:52.646Z,22.76
2023-03-10T05:04:52.645Z,22.67
2023-03-10T05:05:52.647Z,22.64
2023-03-10T05:06:52.657Z,22.72
2023-03-10T05:07:52.612Z,22.69
2023-03-10T05:08:52.658Z,22.67
2023-03-10T05:09:52.697Z,22.64
2023-03-10T05:10:52.591Z,22.67
2023-03-10T05:11:52.580Z,22.67
2023-03-10T05:12:52.581Z,22.70
2023-03-10T05:13:52.589Z,22.70
2023-03-10T05:14:52.599Z,22.73
2023-03-10T05:15:52.615Z,22.65
2023-03-10T05:16:52.568Z,22.73
2023-03-10T05:17:52.558Z,22.70
2023-03-10T05:18:52.534Z,22.66
2023-03-10T05:19:52.535Z,22.73
2023-03-10T05:20:52.529Z,22.70
2023-03-10T05:21:52.503Z,22.65
2023-03-10T05:22:52.500Z,22.74
2023-03-10T05:23:52.508Z,22.67
2023-03-10T05:24:52.504Z,22.73
2023-03-10T05:25:52.477Z,22.73
2023-03-10T05:26:52.485Z,22.69
2023-03-10T05:27:52.484Z,22.70
2023-03-10T05:28:52.448Z,22.71
2023-03-10T05:29:52.450Z,22.70
2023-03-10T05:30:52.460Z,22.72
2023-03-10T05:31:52.466Z,22.69
2023-03-10T05:32:52.529Z,22.66
2023-03-10T05:33:52.417Z,22.69
2023-03-10T05:34:52.457Z,22.69
2023-03-10T05:35:52.425Z,22.62
2023-03-10T05:36:52.432Z,22.69
2023-03-10T05:37:52.445Z,22.69
2023-03-10T05:38:52.424Z,22.67
2023-03-10T05:39:52.425Z,22.64
2023-03-10T05:40:52.417Z,22.72
2023-03-10T05:41:52.403Z,22.67
2023-03-10T05:42:52.403Z,22.69
2023-03-10T05:43:52.399Z,22.67
2023-03-10T05:44:52.398Z,22.66
2023-03-10T05:45:52.415Z,22.65
2023-03-10T05:46:52.430Z,22.68
2023-03-10T05:47:52.407Z,22.66
2023-03-10T05:48:52.410Z,22.64
2023-03-10T05:49:52.382Z,22.64
2023-03-10T05:50:52.377Z,22.61
2023-03-10T05:51:52.381Z,22.67
2023-03-10T05:52:52.384Z,22.70
2023-03-10T05:53:52.357Z,22.69
2023-03-10T05:54:52.353Z,22.67
2023-03-10T05:55:52.356Z,22.64
2023-03-10T05:56:52.350Z,22.67
2023-03-10T05:57:52.332Z,22.58
2023-03-10T05:58:52.338Z,22.68
2023-03-10T05:59:52.324Z,22.65
2023-03-10T06:00:52.322Z,22.69
2023-03-10T06:01:52.330Z,22.61
2023-03-10T06:02:52.327Z,22.70
2023-03-10T06:03:52.349Z,22.66
2023-03-10T06:04:52.318Z,22.61
2023-03-10T06:05:52.303Z,22.60
2023-03-10T06:06:52.295Z,22.70
2023-03-10T06:07:52.284Z,22.68
2023-03-10T06:08:52.275Z,22.67
2023-03-10T06:09:52.274Z,22.70
2023-03-10T06:10:52.271Z,22.70
2023-03-10T06:11:52.278Z,22.55
2023-03-10T06:12:52.247Z,22.64
2023-03-10T06:13:52.241Z,22.67
2023-03-10T06:14:52.238Z,22.73
2023-03-10T06:15:52.256Z,22.67
2023-03-10T06:16:52.249Z,22.68
2023-03-10T06:17:52.244Z,22.60
2023-03-10T06:18:52.226Z,22.68
2023-03-10T06:19:52.216Z,22.71
2023-03-10T06:20:52.238Z,22.58
2023-03-10T06:21:52.218Z,22.67
2023-03-10T06:22:52.221Z,22.70
2023-03-10T06:23:52.192Z,22.68
2023-03-10T06:24:52.195Z,22.67
2023-03-10T06:25:52.244Z,22.70
2023-03-10T06:26:52.190Z,22.65
2023-03-10T06:27:52.190Z,22.68
2023-03-10T06:28:52.195Z,22.62
2023-03-10T06:29:52.191Z,22.67
2023-03-10T06:30:52.205Z,22.64
2023-03-10T06:31:52.325Z,22.71
2023-03-10T06:32:52.293Z,22.63
2023-03-10T06:33:52.467Z,22.64
2023-03-10T06:34:52.265Z,22.74
2023-03-10T06:35:52.223Z,22.73
2023-03-10T06:36:52.216Z,23.35
2023-03-10T06:37:52.153Z,23.74
2023-03-10T06:38:52.116Z,23.99
2023-03-10T06:39:52.220Z,24.43
2023-03-10T06:40:52.222Z,24.72
2023-03-10T06:41:52.084Z,24.85
2023-03-10T06:42:52.085Z,25.10
2023-03-10T06:43:52.057Z,25.39
2023-03-10T06:44:52.047Z,25.63
2023-03-10T06:45:52.118Z,25.77
2023-03-10T06:46:52.027Z,26.07
2023-03-10T06:47:52.063Z,26.17
2023-03-10T06:48:51.998Z,26.44
2023-03-10T06:49:52.034Z,26.17
2023-03-10T06:50:51.968Z,26.49
2023-03-10T06:51:51.972Z,26.46
2023-03-10T06:52:51.935Z,26.83
2023-03-10T06:53:51.933Z,27.14
2023-03-10T06:54:51.908Z,27.15
2023-03-10T06:55:51.883Z,27.31
2023-03-10T06:56:51.913Z,27.38
2023-03-10T06:57:51.844Z,27.30
2023-03-10T06:58:51.843Z,27.32
2023-03-10T06:59:51.920Z,27.46
2023-03-10T07:00:51.815Z,27.53
2023-03-10T07:01:51.780Z,27.60
2023-03-10T07:02:51.745Z,27.51
2023-03-10T07:03:51.745Z,27.72
2023-03-10T07:04:51.916Z,27.74
2023-03-10T07:05:51.716Z,27.78
2023-03-10T07:06:51.686Z,28.98
2023-03-10T07:07:51.689Z,29.06
2023-03-10T07:08:51.658Z,28.61
2023-03-10T07:09:51.757Z,28.28
2023-03-10T07:10:51.940Z,27.77
2023-03-10T07:11:51.626Z,28.11
2023-03-10T07:12:51.551Z,28.45
2023-03-10T07:13:51.763Z,28.08
2023-03-10T07:14:51.522Z,27.97
2023-03-10T07:15:51.524Z,27.89
2023-03-10T07:16:51.602Z,27.70
2023-03-10T07:17:51.485Z,27.63
2023-03-10T07:18:51.459Z,27.88
2023-03-10T07:19:51.596Z,27.83
2023-03-10T07:20:51.397Z,27.77
2023-03-10T07:21:51.407Z,27.49
2023-03-10T07:22:51.405Z,27.69
2023-03-10T07:23:51.369Z,27.49
2023-03-10T07:24:51.333Z,27.65
2023-03-10T07:25:51.372Z,27.58
2023-03-10T07:26:51.351Z,27.39
2023-03-10T07:27:51.318Z,27.31
2023-03-10T07:28:51.278Z,27.15
2023-03-10T07:29:51.299Z,27.01
2023-03-10T07:30:51.290Z,27.30
2023-03-10T07:31:51.280Z,27.01
2023-03-10T07:32:51.254Z,27.13
2023-03-10T07:33:51.156Z,26.83
2023-03-10T07:34:51.170Z,26.96
2023-03-10T07:35:51.197Z,26.98
2023-03-10T07:57:50.744Z,25.88
2023-03-10T07:58:50.638Z,25.84
2023-03-10T07:59:50.627Z,25.85
2023-03-10T08:00:50.687Z,25.82
2023-03-10T08:01:50.655Z,25.76
2023-03-10T08:02:50.578Z,25.67
2023-03-10T08:03:50.607Z,25.65
2023-03-10T08:04:50.810Z,25.65
2023-03-10T08:05:50.601Z,25.60
2023-03-10T08:06:50.552Z,25.59
2023-03-10T08:07:50.514Z,25.52
2023-03-10T08:08:50.484Z,25.49
2023-03-10T08:09:50.459Z,25.50
2023-03-10T08:10:50.419Z,25.43
2023-03-10T08:11:50.422Z,25.42
2023-03-10T08:12:50.394Z,25.42
2023-03-10T08:13:51.007Z,25.32
2023-03-10T08:14:50.325Z,25.31
2023-03-10T08:15:50.319Z,25.29
2023-03-10T08:16:50.287Z,25.25
2023-03-10T08:21:26.970Z,25.09
2023-03-10T08:56:02.344Z,30.30
2023-03-10T08:57:02.350Z,30.57
2023-03-10T08:58:02.332Z,30.53
2023-03-10T08:59:02.319Z,30.57
2023-03-10T09:00:02.343Z,30.60
2023-03-10T09:01:02.350Z,30.62
2023-03-10T09:02:02.422Z,30.70
2023-03-10T09:08:27.905Z,30.47
2023-03-10T09:09:27.298Z,30.53
2023-03-10T09:10:27.988Z,30.56
2023-03-10T09:11:27.419Z,30.52
2023-03-10T09:12:33.530Z,30.41
2023-03-10T09:13:28.209Z,30.39
2023-03-10T09:14:27.998Z,30.49
2023-03-10T09:15:27.153Z,30.51
2023-03-10T09:16:27.143Z,30.51
2023-03-10T09:17:27.098Z,30.52
2023-03-10T09:18:27.093Z,30.55
2023-03-10T09:19:27.088Z,30.34
2023-03-10T09:20:29.327Z,30.39
2023-03-10T09:21:27.065Z,30.30
2023-03-10T09:22:27.006Z,30.19
2023-03-10T09:23:26.959Z,30.36
2023-03-10T09:24:26.905Z,30.30
2023-03-10T09:25:26.886Z,30.37
2023-03-10T09:26:26.904Z,30.25
2023-03-10T09:27:26.928Z,30.33
2023-03-10T09:28:26.899Z,30.06
2023-03-10T09:29:42.118Z,30.06
2023-03-10T09:30:27.901Z,30.06
2023-03-10T09:31:26.973Z,29.86
2023-03-10T09:32:26.940Z,29.99
2023-03-10T09:33:26.844Z,29.82
2023-03-10T09:34:26.806Z,29.39
2023-03-10T09:35:26.820Z,29.07
2023-03-10T09:36:26.764Z,28.83
2023-03-10T09:37:26.734Z,28.62
2023-03-10T09:38:26.740Z,28.37
2023-03-10T09:39:26.679Z,28.16
2023-03-10T09:40:26.637Z,27.85
2023-03-10T09:41:26.622Z,27.68
2023-03-10T09:42:37.455Z,27.58
2023-03-10T09:43:27.564Z,27.42
2023-03-10T09:44:26.568Z,27.05
2023-03-10T09:45:26.537Z,26.97
2023-03-10T09:46:26.487Z,26.87
2023-03-10T09:47:26.469Z,26.74
2023-03-10T09:48:26.569Z,26.82
2023-03-10T09:49:26.415Z,26.98
2023-03-10T09:50:26.390Z,27.18
2023-03-10T09:51:26.389Z,27.38
2023-03-10T09:52:26.366Z,26.14
2023-03-10T09:53:26.371Z,26.16
2023-03-10T09:54:26.316Z,25.95
2023-03-10T09:55:26.303Z,26.73
2023-03-10T09:56:27.890Z,26.31
2023-03-10T09:57:26.277Z,26.32
2023-03-10T09:58:26.271Z,25.91
2023-03-10T09:59:26.272Z,24.95
2023-03-10T10:00:26.247Z,24.96
2023-03-10T10:01:26.277Z,24.82
2023-03-10T10:02:26.236Z,24.82
2023-03-10T10:03:26.307Z,24.95
2023-03-10T10:04:26.298Z,25.39
2023-03-10T10:05:26.240Z,24.41
2023-03-10T10:06:28.283Z,24.55
2023-03-10T10:07:26.385Z,24.77
2023-03-10T10:08:28.700Z,24.85
2023-03-10T10:09:26.446Z,25.24
2023-03-10T10:10:26.561Z,25.49
2023-03-10T10:11:26.415Z,25.62
2023-03-10T10:12:26.703Z,25.70
2023-03-10T10:13:26.339Z,25.50
2023-03-10T10:14:29.811Z,25.53
2023-03-10T10:15:26.394Z,25.58
2023-03-10T10:16:34.288Z,25.20
2023-03-10T10:17:27.411Z,25.48
2023-03-10T10:18:26.388Z,25.47
2023-03-10T10:19:26.259Z,25.40
2023-03-10T10:20:26.394Z,25.39
2023-03-10T10:21:33.487Z,25.34
2023-03-10T10:22:27.222Z,25.17
2023-03-10T10:23:26.226Z,25.05
2023-03-10T10:24:26.214Z,24.94
2023-03-10T10:25:26.233Z,25.23
2023-03-10T10:26:26.144Z,25.42
2023-03-10T10:27:26.137Z,25.39
2023-03-10T10:28:26.150Z,25.35
2023-03-10T10:29:26.182Z,24.71
2023-03-10T10:30:26.981Z,24.96
2023-03-10T10:31:26.145Z,25.17
2023-03-10T10:32:26.102Z,25.17
2023-03-10T10:33:26.045Z,25.07
2023-03-10T10:34:26.232Z,24.44
2023-03-10T10:35:26.020Z,24.43
2023-03-10T10:36:25.991Z,24.92
2023-03-10T10:37:25.978Z,25.03
2023-03-10T10:38:26.050Z,24.96
2023-03-10T10:39:28.044Z,24.93
2023-03-10T10:40:25.930Z,24.81
2023-03-10T10:41:25.997Z,24.96
2023-03-10T10:42:25.917Z,25.25
2023-03-10T10:43:26.036Z,25.96
2023-03-10T10:44:25.911Z,26.08
2023-03-10T10:45:25.880Z,26.56
2023-03-10T10:46:25.890Z,26.54
2023-03-10T10:47:25.838Z,26.57
2023-03-10T10:48:25.878Z,26.58
2023-03-10T10:49:25.932Z,26.43
2023-03-10T10:50:25.915Z,26.18
2023-03-10T10:51:25.974Z,26.04
2023-03-10T10:52:26.020Z,25.82
2023-03-10T10:53:26.144Z,25.79
2023-03-10T10:54:26.092Z,25.75
2023-03-10T10:55:26.130Z,25.74
2023-03-10T10:56:26.183Z,25.68
2023-03-10T10:57:26.234Z,25.65
2023-03-10T10:58:26.261Z,25.61
2023-03-10T10:59:26.349Z,25.43
2023-03-10T11:00:26.294Z,25.27
2023-03-10T11:01:26.380Z,25.15
2023-03-10T11:02:26.313Z,25.22
2023-03-10T11:03:26.257Z,25.28
2023-03-10T11:04:26.248Z,25.07
2023-03-10T11:05:26.241Z,25.03
2023-03-10T11:06:26.206Z,24.64
2023-03-10T11:07:26.186Z,24.50
2023-03-10T11:08:26.182Z,24.78
2023-03-10T11:09:26.215Z,24.90
2023-03-10T11:10:26.491Z,24.94
2023-03-10T11:11:26.154Z,24.82
2023-03-10T11:12:26.118Z,24.83
2023-03-10T11:13:27.046Z,24.84
2023-03-10T11:14:26.599Z,24.05
2023-03-10T11:15:26.101Z,24.61
2023-03-10T11:16:26.058Z,24.62
2023-03-10T11:17:26.058Z,24.93
2023-03-10T11:18:26.138Z,25.50
2023-03-10T11:19:26.030Z,25.73
2023-03-10T11:20:26.013Z,26.10
2023-03-10T11:21:25.986Z,25.95
2023-03-10T11:22:26.040Z,25.84
2023-03-10T11:23:26.584Z,25.84
2023-03-10T11:24:26.245Z,26.19
2023-03-10T11:25:25.906Z,26.23
2023-03-10T11:26:25.871Z,26.12
2023-03-10T13:51:10.171Z,24.32
2023-03-10T13:52:10.158Z,24.25
2023-03-10T13:53:10.101Z,24.25
2023-03-10T13:54:10.075Z,24.27
2023-03-10T13:55:10.042Z,24.20
2023-03-10T13:56:10.046Z,24.24
2023-03-10T13:57:09.979Z,24.24
2023-03-10T13:58:09.941Z,24.24
2023-03-10T13:59:09.905Z,24.17
2023-03-10T14:00:09.912Z,24.11
2023-03-10T14:01:09.858Z,24.18
2023-03-10T14:02:09.819Z,24.15
2023-03-10T14:03:09.922Z,24.20
2023-03-10T14:04:09.766Z,24.16
2023-03-10T14:05:09.714Z,24.07
2023-03-10T14:06:09.684Z,24.13
2023-03-10T14:07:09.652Z,24.17
2023-03-10T14:08:09.616Z,24.15
2023-03-10T14:09:09.585Z,24.10
2023-03-10T14:10:09.522Z,24.15
2023-03-10T14:11:09.592Z,24.15
2023-03-10T14:12:09.461Z,24.11
2023-03-10T14:13:09.449Z,23.93
2023-03-10T14:14:09.391Z,24.10
2023-03-10T14:15:09.392Z,24.07
2023-03-10T14:16:09.326Z,24.06
2023-03-10T14:17:09.389Z,24.04
2023-03-10T14:18:09.240Z,24.06
2023-03-10T14:19:09.193Z,23.89
2023-03-10T14:20:09.194Z,24.04
2023-03-10T14:21:09.153Z,24.03
2023-03-10T14:22:09.099Z,23.99
2023-03-10T14:23:09.065Z,23.97
2023-03-10T14:24:09.030Z,24.00
2023-03-10T14:25:09.019Z,23.99
2023-03-10T14:26:08.925Z,24.07
2023-03-10T14:27:09.105Z,24.03
2023-03-10T14:28:08.895Z,23.99
2023-03-10T14:29:08.862Z,23.92
2023-03-10T17:12:04.277Z,23.45
2023-03-10T17:13:04.252Z,23.46
2023-03-10T17:14:04.276Z,23.41
2023-03-10T17:15:04.302Z,23.35
2023-03-10T17:16:04.170Z,23.33
2023-03-10T17:17:06.557Z,23.43
2023-03-10T17:18:04.073Z,23.43
2023-03-10T17:19:04.061Z,23.29
2023-03-10T17:20:04.028Z,23.11
2023-03-10T17:21:04.006Z,23.36
2023-03-10T17:22:03.967Z,23.17
2023-03-10T17:23:03.956Z,23.25
2023-03-10T17:24:03.954Z,23.33
2023-03-10T17:25:03.915Z,23.27
2023-03-10T17:26:03.899Z,23.19
2023-03-10T17:27:03.924Z,23.21
2023-03-10T17:28:03.821Z,23.32
2023-03-10T17:29:03.799Z,23.37
2023-03-10T17:30:03.786Z,23.33
2023-03-10T17:31:03.754Z,23.39
2023-03-10T17:32:03.784Z,23.33
2023-03-10T17:33:03.733Z,23.19
2023-03-10T17:34:03.684Z,23.32
2023-03-10T17:35:03.678Z,23.35
2023-03-10T17:36:03.631Z,23.30
2023-03-10T17:37:03.634Z,23.26
2023-03-10T17:38:03.594Z,23.26
2023-03-10T17:39:03.573Z,23.27
2023-03-10T17:40:03.564Z,23.35
2023-03-10T17:41:03.531Z,23.32
2023-03-10T17:42:03.510Z,23.32
2023-03-10T17:43:17.295Z,23.32
2023-03-10T17:44:04.574Z,23.33
2023-03-10T17:45:04.509Z,23.32
2023-03-10T17:46:03.455Z,23.37
2023-03-10T17:47:03.379Z,23.34
2023-03-10T17:48:03.373Z,23.39
2023-03-10T17:49:03.332Z,23.37
2023-03-10T17:50:03.293Z,23.37
2023-03-10T17:51:03.289Z,23.41
2023-03-10T17:52:03.252Z,23.43
2023-03-10T17:53:03.227Z,23.39
2023-03-10T17:54:03.268Z,23.37
2023-03-10T17:55:03.297Z,23.44
2023-03-10T17:56:03.300Z,23.43
2023-03-10T17:57:03.330Z,23.46
2023-03-10T17:58:03.367Z,23.44
2023-03-10T17:59:03.402Z,23.46
2023-03-10T18:00:03.445Z,23.41
2023-03-10T18:01:03.467Z,23.46
2023-03-10T18:02:03.572Z,23.47
2023-03-10T18:03:03.686Z,23.48
2023-03-10T18:04:03.576Z,23.48
2023-03-10T18:05:03.615Z,23.52
2023-03-10T18:06:03.670Z,23.48
2023-03-10T18:07:03.674Z,23.45
2023-03-10T18:08:03.690Z,23.51
2023-03-10T18:09:03.754Z,23.49
2023-03-10T18:10:03.760Z,23.49
2023-03-10T18:11:03.845Z,23.51
2023-03-10T18:12:03.829Z,23.52
2023-03-10T18:13:03.841Z,23.57
2023-03-10T18:14:04.182Z,23.63
2023-03-10T18:15:03.920Z,23.62
2023-03-10T18:16:03.990Z,23.58
2023-03-10T18:17:03.949Z,23.55
2023-03-10T18:18:04.021Z,23.58
2023-03-10T18:19:04.070Z,23.62
2023-03-10T18:20:04.159Z,23.62
2023-03-10T18:21:04.135Z,23.60
2023-03-10T18:22:04.194Z,23.62
2023-03-10T18:23:04.235Z,23.65
2023-03-10T18:24:04.269Z,23.65
2023-03-10T18:25:04.333Z,23.60
2023-03-10T18:26:04.373Z,23.62
2023-03-10T18:27:04.416Z,23.63
2023-03-10T18:28:04.472Z,23.65
2023-03-10T18:29:04.503Z,23.70
2023-03-10T18:30:04.531Z,23.65
2023-03-10T18:31:04.621Z,23.66
2023-03-10T18:32:04.643Z,23.65
2023-03-10T18:33:04.667Z,23.66
2023-03-10T18:34:04.693Z,23.66
2023-03-10T18:35:04.756Z,23.65
2023-03-10T18:36:04.800Z,23.71
2023-03-10T18:37:04.839Z,23.70
2023-03-10T18:38:04.871Z,23.71
2023-03-10T18:39:04.944Z,23.71
2023-03-10T18:40:04.937Z,23.71
2023-03-10T18:41:05.002Z,23.74
2023-03-10T18:42:05.010Z,23.73
2023-03-10T18:43:05.035Z,23.71
2023-03-10T18:44:05.074Z,23.71
2023-03-10T18:45:05.113Z,23.75
2023-03-10T18:46:05.165Z,23.76
2023-03-10T18:47:05.187Z,23.76
2023-03-10T18:48:05.212Z,23.74
2023-03-10T18:49:05.249Z,23.74
2023-03-10T18:50:05.271Z,23.74
2023-03-10T18:51:05.302Z,23.76
2023-03-10T18:52:05.342Z,23.73
2023-03-10T18:53:05.376Z,23.71
2023-03-10T18:54:06.953Z,23.70
2023-03-10T18:55:05.374Z,23.76
2023-03-10T18:56:05.336Z,23.74
2023-03-10T18:57:05.323Z,23.74
2023-03-10T18:58:05.280Z,23.73
2023-03-10T18:59:05.256Z,23.77
2023-03-10T19:00:05.245Z,23.76
2023-03-10T19:01:05.199Z,23.73
2023-03-10T19:02:05.353Z,23.73
2023-03-10T19:03:05.187Z,23.73
2023-03-10T19:04:05.123Z,23.80
2023-03-10T19:05:05.112Z,23.76
2023-03-10T19:06:05.103Z,23.77
2023-03-10T19:07:05.041Z,23.77
2023-03-10T19:08:05.018Z,23.79
2023-03-10T19:09:05.042Z,23.79
2023-03-10T19:10:04.960Z,23.79
2023-03-10T19:11:04.944Z,23.71
2023-03-10T19:12:04.925Z,23.77
2023-03-10T19:13:04.901Z,23.75
2023-03-10T19:14:04.887Z,23.81
2023-03-10T19:15:04.846Z,23.73
2023-03-10T19:16:04.912Z,23.76
2023-03-10T19:17:04.801Z,23.80
2023-03-10T19:18:04.768Z,23.81
2023-03-10T19:19:04.753Z,23.79
2023-03-10T19:20:04.717Z,23.80
2023-03-10T19:21:04.701Z,23.80
2023-03-10T19:22:04.756Z,23.83
2023-03-10T19:23:04.643Z,23.83
2023-03-10T19:24:04.621Z,23.77
2023-03-10T19:25:04.604Z,23.81
2023-03-10T19:26:04.614Z,23.84
2023-03-10T19:27:04.563Z,23.77
2023-03-10T19:28:04.531Z,23.79
2023-03-10T19:29:04.521Z,23.81
2023-03-10T19:30:04.500Z,23.74
2023-03-10T19:31:04.496Z,23.84
2023-03-10T19:32:04.452Z,23.84
2023-03-10T19:33:04.463Z,23.79
2023-03-10T19:34:04.430Z,23.84
2023-03-10T19:35:04.394Z,23.84
2023-03-10T19:36:04.464Z,23.81
2023-03-10T19:37:04.340Z,23.78
2023-03-10T19:38:04.322Z,23.81
2023-03-10T19:39:04.296Z,23.85
2023-03-10T19:40:04.270Z,23.84
2023-03-10T19:41:04.303Z,23.82
2023-03-10T19:42:04.228Z,23.75
2023-03-10T19:43:04.214Z,23.78
2023-03-10T19:44:04.171Z,23.82
2023-03-10T19:45:04.146Z,23.84
2023-03-10T19:46:04.127Z,23.82
2023-03-10T19:47:04.151Z,23.78
2023-03-10T19:48:04.084Z,23.84
2023-03-10T19:49:04.073Z,23.74
2023-03-10T19:50:04.027Z,23.82
2023-03-10T19:51:04.008Z,23.78
2023-03-10T19:52:03.988Z,23.81
2023-03-10T19:53:03.960Z,23.76
2023-03-10T19:54:03.941Z,23.82
2023-03-10T19:55:03.918Z,23.81
2023-03-10T19:56:03.898Z,23.83
2023-03-10T19:57:03.870Z,23.79
2023-03-10T19:58:03.842Z,23.86
2023-03-10T19:59:03.828Z,23.81
2023-03-10T20:00:03.826Z,23.85
2023-03-10T20:01:03.891Z,23.78
2023-03-10T20:02:03.771Z,23.83
2023-03-10T20:03:03.816Z,23.87
2023-03-10T20:04:03.711Z,23.81
2023-03-10T20:05:03.698Z,23.79
2023-03-10T20:06:03.681Z,23.86
2023-03-10T20:07:03.670Z,23.78
2023-03-10T20:08:03.651Z,23.84
2023-03-10T20:09:03.670Z,23.84
2023-03-10T20:10:03.621Z,23.83
2023-03-10T20:11:03.605Z,23.76
2023-03-10T20:12:03.597Z,23.82
2023-03-10T20:13:03.557Z,23.76
2023-03-10T20:14:03.548Z,23.84